Strona główna
METAR-TAF:

METAR-TAF

Lotnisko :

Port lotniczy Genua

Genua, Włochy

Szerokość geograficzna: 44-25N, Długość geograficzna: 008-51E, wysokość: 2 m

Aktualna obserwacja pogody

Raport powstał 24 minut temu, godzina 07:50 UTC
Wiatr 3 kt od południe
Temperatura 23°C
Wilgotność 83%
Ciśnienie 1017 hPa
Widzialność 10 km lub więcej
Brak chmur poniżej 1500 m i brak chmur cumulonimbus

METAR: LIMJ 050750Z 17003KT CAVOK 23/20 Q1017

czas: 10:14 (08:14 UTC)

Prognoza

Raport powstał 3 godziny i 14 minut temu, godzina 05:00 UTC
Prognoza ważna od 05 godzina 06 UTC do 06 godzina 06 UTC
Wiatr 5 kt z kierunków zmiennych
Widzialność 10 km lub więcej
Brak chmur poniżej 1500 m i brak chmur cumulonimbus
Stopniowe zmiany
od 05 godzina 09 UTC do 05 godzina 11 UTC
Wiatr 10 kt od południowo-południowy zachód
Stopniowe zmiany
od 05 godzina 16 UTC do 05 godzina 18 UTC
Wiatr 5 kt z kierunków zmiennych

TAF: LIMJ 050500Z 0506/0606 VRB05KT CAVOK BECMG 0509/0511 20010KT BECMG 0516/0518 VRB05KT

Obserwacja i prognoza pogody dla ponad 4000 lotnisk (raport METAR i TAF).

Dostępne stacje oznaczono żółtymi i czerwonymi punktami na mapie.

Najedź kursorem aby zobaczyć nazwę stacji.

Kliknij aby zobaczyć obserwacje i prognozy pogody.

Aby zmienić mapę: kliknij na zielony przycisk z czarnym krzyżykiem, aby powiększyć; na zielony przycisk z myślnikiem, aby pomniejszyć; na zielone strzałki, aby przejść do map sąsiednich.


METAR-TAF: